Time;durP1;ratioP1;P1;durP2;ratioP2;P2;SDS_P1;SDS_P2;PMS_P1;PMS_P2;Temp;Humidity;BMP_temperature;BMP_pressure;BME280_temperature;BME280_humidity;BME280_pressure;Samples;Min_cycle;Max_cycle;Signal;HPM_P1;HPM_P2
2023/07/12 00:01:03;;;;;;;7.55;6.07;;;;;;;;;;10347099;28;20565;-80
2023/07/12 00:06:14;;;;;;;9.75;6.13;;;;;;;;;;10355914;28;20092;-81
2023/07/12 00:11:19;;;;;;;10.68;6.07;;;;;;;;;;10381094;28;20125;-83
2023/07/12 00:16:33;;;;;;;8.52;5.88;;;;;;;;;;10394213;28;20052;-81
2023/07/12 00:21:34;;;;;;;8.50;6.65;;;;;;;;;;10384731;28;20438;-86
2023/07/12 00:26:35;;;;;;;6.40;5.70;;;;;;;;;;10374686;28;20046;-86
2023/07/12 00:31:36;;;;;;;8.23;6.32;;;;;;;;;;10346953;28;20580;-79
2023/07/12 00:36:37;;;;;;;8.67;6.30;;;;;;;;;;10338567;28;20038;-83
2023/07/12 00:41:46;;;;;;;8.18;6.07;;;;;;;;;;10347808;28;20026;-86
2023/07/12 00:46:48;;;;;;;8.25;5.88;;;;;;;;;;10342981;28;20045;-82
2023/07/12 00:52:00;;;;;;;7.53;6.00;;;;;;;;;;10346533;28;20050;-82
2023/07/12 00:57:01;;;;;;;8.85;5.97;;;;;;;;;;10335173;28;20063;-79
2023/07/12 01:02:02;;;;;;;8.77;6.17;;;;;;;;;;10329390;28;20057;-80
2023/07/12 01:07:03;;;;;;;7.20;6.13;;;;;;;;;;10332238;28;20047;-81
2023/07/12 01:12:05;;;;;;;10.50;6.05;;;;;;;;;;10330517;28;20494;-80
2023/07/12 01:17:06;;;;;;;7.15;5.10;;;;;;;;;;10337287;28;20046;-80
2023/07/12 01:22:07;;;;;;;7.03;5.15;;;;;;;;;;10330439;28;20042;-81
2023/07/12 01:27:28;;;;;;;12.13;5.77;;;;;;;;;;10328508;28;20038;-80
2023/07/12 01:32:30;;;;;;;7.20;5.57;;;;;;;;;;10346299;28;20792;-81
2023/07/12 01:37:30;;;;;;;5.50;4.70;;;;;;;;;;10327512;28;20041;-82
2023/07/12 01:42:31;;;;;;;7.10;4.90;;;;;;;;;;10332481;28;20081;-83
2023/07/12 01:47:32;;;;;;;5.68;4.47;;;;;;;;;;10360243;28;20147;-81
2023/07/12 01:52:33;;;;;;;5.60;4.18;;;;;;;;;;10334409;28;20108;-82
2023/07/12 01:57:33;;;;;;;6.90;4.23;;;;;;;;;;10333836;28;20099;-84
2023/07/12 02:02:33;;;;;;;7.13;4.10;;;;;;;;;;10330468;28;20300;-84
2023/07/12 02:07:34;;;;;;;5.47;4.50;;;;;;;;;;10327534;28;20038;-82
2023/07/12 02:12:34;;;;;;;5.33;4.60;;;;;;;;;;10361366;28;20042;-82
2023/07/12 02:17:34;;;;;;;7.50;5.23;;;;;;;;;;10332133;28;20038;-83
2023/07/12 02:22:36;;;;;;;5.75;4.95;;;;;;;;;;10327166;28;20537;-80
2023/07/12 02:27:37;;;;;;;7.50;5.30;;;;;;;;;;10343396;28;20064;-85
2023/07/12 02:32:37;;;;;;;6.20;4.55;;;;;;;;;;10350450;28;20128;-83
2023/07/12 02:37:38;;;;;;;6.57;5.00;;;;;;;;;;10356609;28;20053;-84
2023/07/12 02:42:39;;;;;;;5.50;4.53;;;;;;;;;;10340752;28;20085;-82
2023/07/12 02:47:40;;;;;;;6.00;4.18;;;;;;;;;;10332436;28;20038;-82
2023/07/12 02:52:40;;;;;;;4.57;4.17;;;;;;;;;;10333968;28;20054;-82
2023/07/12 02:57:43;;;;;;;4.90;4.17;;;;;;;;;;10343394;28;20648;-81
2023/07/12 03:02:43;;;;;;;5.60;4.47;;;;;;;;;;10331303;28;20463;-80
2023/07/12 03:07:45;;;;;;;4.33;3.90;;;;;;;;;;10335295;28;20034;-80
2023/07/12 03:12:46;;;;;;;4.93;3.80;;;;;;;;;;10333312;28;20349;-80
2023/07/12 03:17:46;;;;;;;4.90;4.00;;;;;;;;;;10348913;28;20359;-81
2023/07/12 03:22:46;;;;;;;4.13;3.27;;;;;;;;;;10333140;28;20037;-80
2023/07/12 03:27:48;;;;;;;4.37;3.50;;;;;;;;;;10330704;28;20041;-84
2023/07/12 03:32:48;;;;;;;3.13;2.80;;;;;;;;;;10342804;28;20086;-84
2023/07/12 03:37:49;;;;;;;3.25;2.60;;;;;;;;;;10335770;28;20035;-82
2023/07/12 03:42:50;;;;;;;4.70;3.13;;;;;;;;;;10346747;28;20034;-81
2023/07/12 03:47:51;;;;;;;4.35;2.60;;;;;;;;;;10338758;28;20218;-81
2023/07/12 03:52:51;;;;;;;4.38;3.05;;;;;;;;;;10331107;28;20044;-82
2023/07/12 03:57:51;;;;;;;3.77;2.50;;;;;;;;;;10331249;28;20041;-77
2023/07/12 04:02:52;;;;;;;5.13;2.70;;;;;;;;;;10347951;28;20316;-83
2023/07/12 04:07:53;;;;;;;2.70;2.27;;;;;;;;;;10331485;28;20905;-80
2023/07/12 04:12:57;;;;;;;;;;;;;;;;;;10335643;28;20117;-81
2023/07/12 04:17:58;;;;;;;4.07;2.87;;;;;;;;;;10336393;28;19971;-86
2023/07/12 04:22:58;;;;;;;4.28;2.90;;;;;;;;;;10333600;28;20319;-81
2023/07/12 04:27:59;;;;;;;3.33;2.60;;;;;;;;;;10330698;28;20037;-81
2023/07/12 04:33:00;;;;;;;3.83;2.73;;;;;;;;;;10331254;28;20038;-81
2023/07/12 04:38:00;;;;;;;3.58;3.10;;;;;;;;;;10355909;28;20026;-76
2023/07/12 04:43:01;;;;;;;4.23;3.00;;;;;;;;;;10381656;28;20014;-75
2023/07/12 04:48:01;;;;;;;3.90;3.20;;;;;;;;;;10365811;28;20328;-79
2023/07/12 04:53:02;;;;;;;4.63;2.90;;;;;;;;;;10355878;28;20293;-83
2023/07/12 04:58:03;;;;;;;6.60;3.00;;;;;;;;;;10341208;28;20037;-81
2023/07/12 05:03:03;;;;;;;5.10;3.53;;;;;;;;;;10335811;28;20041;-81
2023/07/12 05:08:05;;;;;;;3.40;3.00;;;;;;;;;;10334835;28;20345;-81
2023/07/12 05:13:05;;;;;;;4.20;3.07;;;;;;;;;;10336764;28;20164;-81
2023/07/12 05:18:06;;;;;;;4.53;3.10;;;;;;;;;;10333550;28;20048;-82
2023/07/12 05:23:07;;;;;;;4.10;3.00;;;;;;;;;;10333999;28;20060;-79
2023/07/12 05:28:07;;;;;;;3.30;2.85;;;;;;;;;;10332631;28;20042;-81
2023/07/12 05:33:07;;;;;;;4.70;3.00;;;;;;;;;;10333033;28;20548;-77
2023/07/12 05:38:08;;;;;;;3.42;3.00;;;;;;;;;;10325635;28;20026;-76
2023/07/12 05:43:08;;;;;;;4.47;2.83;;;;;;;;;;10327157;28;20382;-78
2023/07/12 05:48:08;;;;;;;7.00;3.40;;;;;;;;;;10327653;28;20042;-77
2023/07/12 05:53:09;;;;;;;2.57;2.37;;;;;;;;;;10330073;28;20097;-79
2023/07/12 05:58:10;;;;;;;4.03;2.80;;;;;;;;;;10329586;28;20387;-80
2023/07/12 06:03:11;;;;;;;3.17;2.50;;;;;;;;;;10352200;28;20129;-78
2023/07/12 06:08:11;;;;;;;5.97;2.42;;;;;;;;;;10342471;28;20731;-78
2023/07/12 06:13:13;;;;;;;5.50;3.38;;;;;;;;;;10337726;28;20034;-79
2023/07/12 06:18:13;;;;;;;3.23;2.67;;;;;;;;;;10334393;28;20038;-78
2023/07/12 06:23:13;;;;;;;4.43;3.00;;;;;;;;;;10337696;28;20050;-79
2023/07/12 06:28:14;;;;;;;3.90;3.00;;;;;;;;;;10338804;28;20304;-79
2023/07/12 06:33:14;;;;;;;4.37;3.00;;;;;;;;;;10345250;28;20092;-80
2023/07/12 06:38:16;;;;;;;3.78;2.63;;;;;;;;;;10337030;28;20700;-79
2023/07/12 06:43:17;;;;;;;4.95;3.65;;;;;;;;;;10354996;28;20090;-79
2023/07/12 06:48:17;;;;;;;5.30;3.70;;;;;;;;;;10393506;28;20069;-78
2023/07/12 06:53:17;;;;;;;6.93;3.37;;;;;;;;;;10392223;28;20033;-79
2023/07/12 06:58:18;;;;;;;4.47;3.63;;;;;;;;;;10346450;28;20539;-79
2023/07/12 07:03:18;;;;;;;9.27;5.17;;;;;;;;;;10338959;28;20542;-79
2023/07/12 07:08:19;;;;;;;6.63;4.40;;;;;;;;;;10336221;28;20515;-79
2023/07/12 07:13:22;;;;;;;6.70;4.82;;;;;;;;;;10337544;28;20080;-78
2023/07/12 07:18:22;;;;;;;5.65;4.75;;;;;;;;;;10337352;28;20038;-79
2023/07/12 07:23:23;;;;;;;7.05;4.68;;;;;;;;;;10332740;28;20049;-79
2023/07/12 07:28:23;;;;;;;7.30;4.20;;;;;;;;;;10334768;28;20528;-79
2023/07/12 07:33:24;;;;;;;7.00;4.63;;;;;;;;;;10332742;28;20347;-78
2023/07/12 07:38:27;;;;;;;6.10;4.57;;;;;;;;;;10332969;28;20030;-78
2023/07/12 07:43:28;;;;;;;5.03;4.22;;;;;;;;;;10331697;28;20116;-79
2023/07/12 07:48:28;;;;;;;6.53;4.47;;;;;;;;;;10334210;28;20093;-78
2023/07/12 07:53:29;;;;;;;7.63;4.80;;;;;;;;;;10331660;28;20042;-76
2023/07/12 07:58:29;;;;;;;7.33;4.60;;;;;;;;;;10331857;28;20453;-76
2023/07/12 08:03:30;;;;;;;7.47;4.90;;;;;;;;;;10331601;28;20034;-79
2023/07/12 08:08:32;;;;;;;7.80;4.50;;;;;;;;;;10334590;28;20143;-77
2023/07/12 08:13:33;;;;;;;6.28;5.05;;;;;;;;;;10331907;28;20769;-79
2023/07/12 08:18:34;;;;;;;6.85;4.82;;;;;;;;;;10330894;28;20030;-80
2023/07/12 08:23:34;;;;;;;7.93;4.87;;;;;;;;;;10327610;28;20084;-78
2023/07/12 08:28:34;;;;;;;7.93;5.17;;;;;;;;;;10331004;28;20304;-77
2023/07/12 08:33:35;;;;;;;6.47;4.65;;;;;;;;;;10329306;28;20297;-77
2023/07/12 08:38:36;;;;;;;8.27;4.95;;;;;;;;;;10331210;28;20049;-80
2023/07/12 08:43:36;;;;;;;9.10;5.30;;;;;;;;;;10326652;28;20050;-80
2023/07/12 08:48:37;;;;;;;8.10;4.70;;;;;;;;;;10329449;28;20081;-78
2023/07/12 08:53:40;;;;;;;7.03;5.10;;;;;;;;;;10331710;28;20072;-78
2023/07/12 08:58:43;;;;;;;6.95;5.32;;;;;;;;;;10328117;28;20092;-78
2023/07/12 09:03:44;;;;;;;6.05;4.55;;;;;;;;;;10343967;28;20042;-79
2023/07/12 09:08:50;;;;;;;7.75;5.50;;;;;;;;;;10328813;28;20478;-79
2023/07/12 09:13:51;;;;;;;6.38;5.38;;;;;;;;;;10332137;28;20072;-78
2023/07/12 09:18:52;;;;;;;8.57;5.70;;;;;;;;;;10331900;28;20049;-80
2023/07/12 09:23:54;;;;;;;7.60;6.00;;;;;;;;;;10329594;28;20070;-78
2023/07/12 09:28:58;;;;;;;6.53;5.70;;;;;;;;;;10330668;28;20077;-77
2023/07/12 09:34:03;;;;;;;7.47;5.32;;;;;;;;;;10325582;28;20038;-78
2023/07/12 09:39:07;;;;;;;5.60;4.72;;;;;;;;;;10357194;28;20037;-79
2023/07/12 09:44:08;;;;;;;6.18;5.10;;;;;;;;;;10340743;28;20128;-79
2023/07/12 09:49:17;;;;;;;5.20;4.70;;;;;;;;;;10349218;28;20054;-77
2023/07/12 09:54:23;;;;;;;5.22;4.70;;;;;;;;;;10334017;28;20065;-81
2023/07/12 09:59:33;;;;;;;7.50;5.40;;;;;;;;;;10357899;28;20084;-78
2023/07/12 10:04:33;;;;;;;5.00;4.45;;;;;;;;;;10335252;28;20592;-77
2023/07/12 10:09:35;;;;;;;10.33;5.10;;;;;;;;;;10341497;28;20136;-79
2023/07/12 10:14:37;;;;;;;5.25;4.20;;;;;;;;;;10341132;28;20041;-78
2023/07/12 10:19:39;;;;;;;5.95;4.55;;;;;;;;;;10339938;28;20046;-78
2023/07/12 10:24:42;;;;;;;5.90;4.80;;;;;;;;;;10352306;28;20039;-77
2023/07/12 10:29:45;;;;;;;6.85;4.88;;;;;;;;;;10332678;28;20055;-78
2023/07/12 10:34:48;;;;;;;4.50;4.10;;;;;;;;;;10335269;28;20117;-77
2023/07/12 10:39:49;;;;;;;4.53;4.13;;;;;;;;;;10350929;28;20041;-78
2023/07/12 10:44:52;;;;;;;4.80;4.10;;;;;;;;;;10354428;28;20438;-75
2023/07/12 10:49:58;;;;;;;6.00;3.70;;;;;;;;;;10333653;28;20073;-78
2023/07/12 10:55:02;;;;;;;4.57;3.97;;;;;;;;;;10336135;28;20053;-77
2023/07/12 11:00:20;;;;;;;5.30;3.85;;;;;;;;;;10339001;28;20037;-76
2023/07/12 11:05:36;;;;;;;4.72;3.95;;;;;;;;;;10337166;28;20493;-78
2023/07/12 11:10:36;;;;;;;5.93;3.67;;;;;;;;;;10333138;28;20486;-82
2023/07/12 11:15:51;;;;;;;4.40;3.63;;;;;;;;;;10331367;28;20045;-79
2023/07/12 11:21:02;;;;;;;4.20;3.80;;;;;;;;;;10342427;28;20041;-80
2023/07/12 11:26:07;;;;;;;3.87;3.47;;;;;;;;;;10335286;28;20383;-84
2023/07/12 11:31:13;;;;;;;4.05;3.30;;;;;;;;;;10333669;28;20483;-84
2023/07/12 11:36:28;;;;;;;5.93;3.40;;;;;;;;;;10351024;28;20038;-84
2023/07/12 11:41:30;;;;;;;3.83;3.38;;;;;;;;;;10342744;28;20651;-86
2023/07/12 11:46:31;;;;;;;;;;;;;;;;;;10363612;28;20437;-82
2023/07/12 11:51:37;;;;;;;4.47;3.57;;;;;;;;;;10353153;28;19975;-83
2023/07/12 11:56:42;;;;;;;5.78;3.50;;;;;;;;;;10371736;28;20041;-85
2023/07/12 12:01:47;;;;;;;5.35;3.25;;;;;;;;;;10361807;28;20054;-81
2023/07/12 12:06:59;;;;;;;5.50;3.50;;;;;;;;;;10345339;28;20137;-85
2023/07/12 12:12:00;;;;;;;3.47;3.00;;;;;;;;;;10337184;28;20053;-82
2023/07/12 12:17:06;;;;;;;3.80;3.22;;;;;;;;;;10341629;28;20065;-84
2023/07/12 12:22:14;;;;;;;3.65;2.63;;;;;;;;;;10341249;28;20149;-80
2023/07/12 12:27:21;;;;;;;3.58;3.10;;;;;;;;;;10339791;28;20882;-84
2023/07/12 12:32:25;;;;;;;3.35;3.05;;;;;;;;;;10349585;28;20053;-83
2023/07/12 12:37:28;;;;;;;5.13;3.55;;;;;;;;;;10359647;28;20041;-83
2023/07/12 12:42:31;;;;;;;5.30;3.47;;;;;;;;;;10333279;28;20210;-85
2023/07/12 12:47:33;;;;;;;3.15;2.85;;;;;;;;;;10345246;28;20041;-86
2023/07/12 12:52:35;;;;;;;5.00;3.20;;;;;;;;;;10338849;28;20053;-87
2023/07/12 12:57:36;;;;;;;3.60;3.30;;;;;;;;;;10357404;23;20077;-87
2023/07/12 13:02:40;;;;;;;3.78;3.15;;;;;;;;;;10347588;28;20037;-85
2023/07/12 13:07:44;;;;;;;4.28;3.53;;;;;;;;;;10354795;28;20040;-83
2023/07/12 13:12:50;;;;;;;3.63;3.20;;;;;;;;;;10375160;28;20056;-83
2023/07/12 13:17:52;;;;;;;3.63;2.60;;;;;;;;;;10355987;28;20216;-84
2023/07/12 13:22:58;;;;;;;5.30;3.08;;;;;;;;;;10353959;28;20074;-84
2023/07/12 13:28:00;;;;;;;4.03;3.20;;;;;;;;;;10352562;28;21107;-84
2023/07/12 13:33:14;;;;;;;5.30;3.63;;;;;;;;;;10367482;28;20045;-83
2023/07/12 13:38:16;;;;;;;3.60;2.92;;;;;;;;;;10354069;28;20056;-82
2023/07/12 13:43:20;;;;;;;3.92;2.90;;;;;;;;;;10346541;28;20041;-82
2023/07/12 13:48:27;;;;;;;5.03;2.78;;;;;;;;;;10351928;28;20072;-85
2023/07/12 13:53:28;;;;;;;3.53;2.90;;;;;;;;;;10348006;28;20034;-85
2023/07/12 13:58:28;;;;;;;5.10;2.90;;;;;;;;;;10341883;28;20046;-83
2023/07/12 14:03:30;;;;;;;4.35;2.67;;;;;;;;;;10345074;28;20069;-83
2023/07/12 14:08:31;;;;;;;2.87;2.67;;;;;;;;;;10352210;28;20121;-83
2023/07/12 14:13:32;;;;;;;4.13;3.10;;;;;;;;;;10355319;28;20096;-87
2023/07/12 14:18:32;;;;;;;3.73;3.23;;;;;;;;;;10354381;28;20026;-87
2023/07/12 14:23:33;;;;;;;3.80;3.08;;;;;;;;;;10383985;28;20097;-86
2023/07/12 14:33:38;;;;;;;3.03;2.42;;;;;;;;;;10391427;28;20034;-86
2023/07/12 14:38:43;;;;;;;3.60;3.03;;;;;;;;;;10386891;28;20041;-85
2023/07/12 14:43:44;;;;;;;3.17;2.50;;;;;;;;;;10390465;28;20111;-87
2023/07/12 14:48:45;;;;;;;4.43;2.85;;;;;;;;;;10363486;28;20038;-75
2023/07/12 14:53:46;;;;;;;3.67;2.60;;;;;;;;;;10356075;28;20033;-80
2023/07/12 14:58:46;;;;;;;;;;;;;;;;;;10377897;28;20081;-82
2023/07/12 15:03:47;;;;;;;3.63;2.80;;;;;;;;;;10356978;28;19953;-82
2023/07/12 15:08:47;;;;;;;3.67;2.72;;;;;;;;;;10376999;28;20026;-85
2023/07/12 15:13:48;;;;;;;3.37;2.80;;;;;;;;;;10394303;28;20035;-86
2023/07/12 15:18:48;;;;;;;;;;;;;;;;;;10345073;28;20038;-72
2023/07/12 15:23:49;;;;;;;3.22;2.88;;;;;;;;;;10343188;28;19925;-73
2023/07/12 15:28:49;;;;;;;;;;;;;;;;;;10343074;28;20051;-74
2023/07/12 15:33:50;;;;;;;3.95;2.60;;;;;;;;;;10337863;28;19928;-74
2023/07/12 15:38:51;;;;;;;2.97;2.60;;;;;;;;;;10337971;28;20116;-75
2023/07/12 15:43:54;;;;;;;;;;;;;;;;;;10348213;28;20046;-84
2023/07/12 15:48:55;;;;;;;5.35;3.13;;;;;;;;;;10369995;28;20617;-84
2023/07/12 15:53:55;;;;;;;4.45;2.97;;;;;;;;;;10353771;28;20050;-83
2023/07/12 15:58:56;;;;;;;4.27;2.33;;;;;;;;;;10344355;28;20470;-76
2023/07/12 16:03:57;;;;;;;5.67;2.80;;;;;;;;;;10354716;28;20034;-81
2023/07/12 16:08:58;;;;;;;3.20;2.90;;;;;;;;;;10333504;28;20609;-83
2023/07/12 16:13:59;;;;;;;4.18;2.65;;;;;;;;;;10344109;28;20046;-81
2023/07/12 16:19:00;;;;;;;5.55;3.25;;;;;;;;;;10333815;28;20034;-76
2023/07/12 16:24:01;;;;;;;6.72;3.30;;;;;;;;;;10337999;28;20073;-80
2023/07/12 16:29:03;;;;;;;5.25;3.17;;;;;;;;;;10331138;28;20041;-78
2023/07/12 16:34:10;;;;;;;3.55;3.05;;;;;;;;;;10342679;28;20041;-80
2023/07/12 16:39:11;;;;;;;3.53;2.63;;;;;;;;;;10335189;28;20034;-77
2023/07/12 16:44:16;;;;;;;5.15;2.90;;;;;;;;;;10327751;28;20049;-76
2023/07/12 16:49:17;;;;;;;4.03;2.80;;;;;;;;;;10336854;28;20046;-78
2023/07/12 16:54:17;;;;;;;4.43;2.93;;;;;;;;;;10332685;28;20053;-76
2023/07/12 16:59:18;;;;;;;3.20;2.60;;;;;;;;;;10342531;28;20390;-78
2023/07/12 17:04:19;;;;;;;4.63;2.97;;;;;;;;;;10342762;28;20108;-77
2023/07/12 17:09:22;;;;;;;4.38;2.67;;;;;;;;;;10339591;28;20034;-83
2023/07/12 17:14:22;;;;;;;3.95;2.50;;;;;;;;;;10364786;28;20053;-83
2023/07/12 17:19:23;;;;;;;3.60;2.57;;;;;;;;;;10378206;28;20037;-82
2023/07/12 17:24:23;;;;;;;5.07;2.77;;;;;;;;;;10349204;28;20588;-83
2023/07/12 17:29:23;;;;;;;2.50;2.23;;;;;;;;;;10379648;28;20470;-82
2023/07/12 17:34:34;;;;;;;3.33;2.70;;;;;;;;;;10360258;28;20096;-84
2023/07/12 17:39:34;;;;;;;3.97;2.63;;;;;;;;;;10345175;28;20767;-80
2023/07/12 17:44:35;;;;;;;3.77;2.50;;;;;;;;;;10346415;28;20034;-82
2023/07/12 17:49:35;;;;;;;2.77;2.30;;;;;;;;;;10352670;28;20610;-83
2023/07/12 17:54:35;;;;;;;4.33;2.53;;;;;;;;;;10347105;28;20057;-83
2023/07/12 17:59:36;;;;;;;5.07;2.60;;;;;;;;;;10362620;28;20057;-85
2023/07/12 18:04:36;;;;;;;3.77;3.07;;;;;;;;;;10368664;28;20062;-83
2023/07/12 18:09:38;;;;;;;3.43;2.67;;;;;;;;;;10392375;28;20042;-83
2023/07/12 18:14:39;;;;;;;2.85;2.17;;;;;;;;;;10361687;28;20532;-81
2023/07/12 18:19:40;;;;;;;5.17;2.73;;;;;;;;;;10369550;28;20037;-82
2023/07/12 18:24:41;;;;;;;3.23;2.30;;;;;;;;;;10394393;28;20030;-81
2023/07/12 18:29:42;;;;;;;3.03;2.53;;;;;;;;;;10365485;23;20043;-81
2023/07/12 18:34:43;;;;;;;3.83;2.50;;;;;;;;;;10269659;28;20084;-84
2023/07/12 18:39:47;;;;;;;3.70;2.90;;;;;;;;;;10438305;23;20145;-83
2023/07/12 18:44:48;;;;;;;4.80;3.10;;;;;;;;;;10411644;22;20491;-84
2023/07/12 18:49:55;;;;;;;5.47;2.50;;;;;;;;;;10350976;28;20034;-84
2023/07/12 18:54:56;;;;;;;3.30;2.30;;;;;;;;;;10354176;28;20030;-83
2023/07/12 18:59:56;;;;;;;5.83;2.47;;;;;;;;;;10320799;28;20042;-83
2023/07/12 19:04:56;;;;;;;4.87;2.70;;;;;;;;;;10318936;28;20052;-83
2023/07/12 19:09:57;;;;;;;3.33;2.50;;;;;;;;;;10319512;28;20038;-84
2023/07/12 19:15:01;;;;;;;4.43;2.50;;;;;;;;;;10315101;28;20959;-76
2023/07/12 19:20:01;;;;;;;3.95;2.28;;;;;;;;;;10305314;28;20034;-84
2023/07/12 19:25:02;;;;;;;3.73;2.57;;;;;;;;;;10313846;28;20025;-82
2023/07/12 19:30:03;;;;;;;2.93;2.60;;;;;;;;;;10317082;28;20053;-82
2023/07/12 19:35:03;;;;;;;3.53;2.73;;;;;;;;;;10320654;28;20976;-82
2023/07/12 19:40:06;;;;;;;3.13;2.57;;;;;;;;;;10326088;28;20149;-80
2023/07/12 19:45:08;;;;;;;3.10;2.53;;;;;;;;;;10323856;28;20042;-83
2023/07/12 19:50:09;;;;;;;3.78;2.33;;;;;;;;;;10334631;28;20057;-82
2023/07/12 19:55:18;;;;;;;3.38;2.38;;;;;;;;;;10338527;28;20143;-80
2023/07/12 20:00:19;;;;;;;4.63;2.65;;;;;;;;;;10348225;28;20045;-81
2023/07/12 20:05:21;;;;;;;4.40;2.43;;;;;;;;;;10320460;28;20142;-81
2023/07/12 20:10:21;;;;;;;;;;;;;;;;;;10322567;28;20042;-80
2023/07/12 20:15:22;;;;;;;3.80;2.55;;;;;;;;;;10320629;28;19929;-81
2023/07/12 20:20:22;;;;;;;3.53;2.27;;;;;;;;;;10311240;28;20407;-81
2023/07/12 20:25:22;;;;;;;4.53;2.22;;;;;;;;;;10311515;28;20281;-84
2023/07/12 20:30:23;;;;;;;3.20;2.60;;;;;;;;;;10309854;28;20042;-80
2023/07/12 20:35:23;;;;;;;3.80;3.03;;;;;;;;;;10309126;28;20044;-80
2023/07/12 20:40:24;;;;;;;4.05;2.58;;;;;;;;;;10312765;28;20506;-81
2023/07/12 20:45:24;;;;;;;5.47;2.38;;;;;;;;;;10304579;28;20062;-80
2023/07/12 20:50:25;;;;;;;3.17;2.20;;;;;;;;;;10312660;28;20061;-81
2023/07/12 20:55:28;;;;;;;6.03;2.63;;;;;;;;;;10308554;28;20290;-80
2023/07/12 21:00:29;;;;;;;3.72;2.15;;;;;;;;;;10308703;28;20039;-81
2023/07/12 21:05:30;;;;;;;3.50;2.33;;;;;;;;;;10306838;28;20584;-82
2023/07/12 21:10:31;;;;;;;3.63;2.47;;;;;;;;;;10308772;28;20792;-84
2023/07/12 21:15:31;;;;;;;3.08;1.95;;;;;;;;;;10315399;28;20054;-83
2023/07/12 21:20:31;;;;;;;2.70;2.10;;;;;;;;;;10313966;28;20034;-85
2023/07/12 21:25:32;;;;;;;2.30;2.03;;;;;;;;;;10311161;28;20030;-81
2023/07/12 21:30:32;;;;;;;2.60;1.90;;;;;;;;;;10314259;28;20050;-81
2023/07/12 21:35:33;;;;;;;2.13;1.90;;;;;;;;;;10317726;28;20351;-83
2023/07/12 21:40:33;;;;;;;3.37;1.97;;;;;;;;;;10318547;28;20383;-83
2023/07/12 21:45:33;;;;;;;2.13;1.80;;;;;;;;;;10312363;28;20106;-79
2023/07/12 21:50:34;;;;;;;2.63;1.80;;;;;;;;;;10313213;28;20309;-83
2023/07/12 21:55:35;;;;;;;2.45;1.85;;;;;;;;;;10315235;28;20304;-83
2023/07/12 22:00:35;;;;;;;3.00;1.67;;;;;;;;;;10313751;28;20060;-83
2023/07/12 22:05:36;;;;;;;2.10;1.77;;;;;;;;;;10314836;28;20531;-79
2023/07/12 22:10:37;;;;;;;2.70;1.88;;;;;;;;;;10311823;28;20045;-80
2023/07/12 22:15:38;;;;;;;3.35;1.70;;;;;;;;;;10308267;28;20433;-81
2023/07/12 22:20:38;;;;;;;3.38;2.08;;;;;;;;;;10313843;28;20058;-80
2023/07/12 22:25:38;;;;;;;1.90;1.60;;;;;;;;;;10308962;28;20042;-83
2023/07/12 22:30:39;;;;;;;3.13;1.90;;;;;;;;;;10314816;28;20370;-81
2023/07/12 22:35:40;;;;;;;2.15;1.75;;;;;;;;;;10322799;28;20105;-82
2023/07/12 22:40:40;;;;;;;2.95;1.98;;;;;;;;;;10334316;28;20046;-80
2023/07/12 22:45:40;;;;;;;2.07;1.83;;;;;;;;;;10316517;28;20043;-82
2023/07/12 22:50:41;;;;;;;2.07;1.60;;;;;;;;;;10313758;28;20317;-79
2023/07/12 22:55:42;;;;;;;3.67;1.77;;;;;;;;;;10314189;28;20031;-79
2023/07/12 23:00:44;;;;;;;5.18;2.13;;;;;;;;;;10310121;28;20038;-82
2023/07/12 23:05:44;;;;;;;1.93;1.53;;;;;;;;;;10321357;28;20030;-79
2023/07/12 23:10:44;;;;;;;2.33;1.60;;;;;;;;;;10313765;28;20037;-80
2023/07/12 23:15:45;;;;;;;1.75;1.50;;;;;;;;;;10315435;28;20099;-80
2023/07/12 23:20:46;;;;;;;1.80;1.60;;;;;;;;;;10309671;28;20045;-79
2023/07/12 23:25:47;;;;;;;2.10;1.50;;;;;;;;;;10310878;28;20041;-81
2023/07/12 23:30:47;;;;;;;2.30;1.60;;;;;;;;;;10307309;28;20050;-81
2023/07/12 23:35:47;;;;;;;2.60;1.83;;;;;;;;;;10312919;28;20033;-80
2023/07/12 23:40:48;;;;;;;2.60;1.70;;;;;;;;;;10311191;28;20030;-79
2023/07/12 23:45:48;;;;;;;1.63;1.53;;;;;;;;;;10310808;28;20042;-79
2023/07/12 23:50:50;;;;;;;1.88;1.38;;;;;;;;;;10313816;28;20943;-81
2023/07/12 23:55:51;;;;;;;1.95;1.52;;;;;;;;;;10309182;28;20040;-79
